createdAt,value
2023-12-05T00:00:48.402Z,4.93
2023-12-05T00:03:37.061Z,5.28
2023-12-05T00:06:24.685Z,5.00
2023-12-05T00:09:12.703Z,4.93
2023-12-05T00:12:00.045Z,4.68
2023-12-05T00:14:47.317Z,4.20
2023-12-05T00:17:34.892Z,4.60
2023-12-05T00:20:22.651Z,4.72
2023-12-05T00:23:09.814Z,4.60
2023-12-05T00:25:57.039Z,4.68
2023-12-05T00:28:44.222Z,4.38
2023-12-05T00:31:31.578Z,4.18
2023-12-05T00:34:18.883Z,4.20
2023-12-05T00:37:06.220Z,4.35
2023-12-05T00:39:53.467Z,4.10
2023-12-05T00:42:40.861Z,4.32
2023-12-05T00:45:28.071Z,4.07
2023-12-05T00:48:15.505Z,3.92
2023-12-05T00:51:02.885Z,4.40
2023-12-05T00:53:50.106Z,4.30
2023-12-05T00:56:37.644Z,4.05
2023-12-05T00:59:24.882Z,4.28
2023-12-05T01:02:12.204Z,4.05
2023-12-05T01:04:59.544Z,3.85
2023-12-05T01:07:47.982Z,4.28
2023-12-05T01:10:35.878Z,4.85
2023-12-05T01:13:23.434Z,5.07
2023-12-05T01:16:11.277Z,5.45
2023-12-05T01:18:58.583Z,5.25
2023-12-05T01:21:45.899Z,5.05
2023-12-05T01:24:33.177Z,5.30
2023-12-05T01:27:20.435Z,5.22
2023-12-05T01:30:08.230Z,5.57
2023-12-05T01:32:55.529Z,5.18
2023-12-05T01:35:42.758Z,5.15
2023-12-05T01:38:30.032Z,5.30
2023-12-05T01:41:17.426Z,5.57
2023-12-05T01:44:04.726Z,5.45
2023-12-05T01:46:52.009Z,5.30
2023-12-05T01:49:40.817Z,5.65
2023-12-05T01:52:28.131Z,5.35
2023-12-05T01:55:16.862Z,6.18
2023-12-05T01:58:05.740Z,6.15
2023-12-05T02:00:54.140Z,6.03
2023-12-05T02:03:41.472Z,6.35
2023-12-05T02:06:28.893Z,6.38
2023-12-05T02:09:18.000Z,8.63
2023-12-05T02:12:06.059Z,9.23
2023-12-05T02:14:53.664Z,8.65
2023-12-05T02:17:49.805Z,8.45
2023-12-05T02:20:52.657Z,6.70
2023-12-05T02:23:51.360Z,7.47
2023-12-05T02:27:07.074Z,7.03
2023-12-05T02:29:54.332Z,6.95
2023-12-05T02:32:42.316Z,6.97
2023-12-05T02:35:29.711Z,6.63
2023-12-05T02:38:30.994Z,6.90
2023-12-05T02:41:23.398Z,6.40
2023-12-05T02:44:13.611Z,6.38
2023-12-05T02:47:02.604Z,6.60
2023-12-05T02:49:50.777Z,6.20
2023-12-05T02:52:38.048Z,6.78
2023-12-05T02:55:25.248Z,7.57
2023-12-05T02:58:12.463Z,7.07
2023-12-05T03:01:00.378Z,7.10
2023-12-05T03:03:48.609Z,6.63
2023-12-05T03:06:35.925Z,7.22
2023-12-05T03:09:23.319Z,6.80
2023-12-05T03:12:10.553Z,7.15
2023-12-05T03:14:57.735Z,7.60
2023-12-05T03:17:45.054Z,7.22
2023-12-05T03:20:32.467Z,7.13
2023-12-05T03:23:20.081Z,7.28
2023-12-05T03:26:08.010Z,6.82
2023-12-05T03:28:55.306Z,7.55
2023-12-05T03:31:43.398Z,8.55
2023-12-05T03:34:30.624Z,7.68
2023-12-05T03:37:17.854Z,7.82
2023-12-05T03:40:05.875Z,8.43
2023-12-05T03:42:53.324Z,7.47
2023-12-05T03:45:40.514Z,7.88
2023-12-05T03:48:27.841Z,9.00
2023-12-05T03:51:15.276Z,7.95
2023-12-05T03:54:04.005Z,8.32
2023-12-05T03:56:51.234Z,8.13
2023-12-05T03:59:38.497Z,7.90
2023-12-05T04:02:25.761Z,8.27
2023-12-05T04:05:13.261Z,8.20
2023-12-05T04:08:00.517Z,7.72
2023-12-05T04:10:47.789Z,8.55
2023-12-05T04:13:38.837Z,7.85
2023-12-05T04:16:26.820Z,8.45
2023-12-05T04:19:14.176Z,8.05
2023-12-05T04:22:01.602Z,7.72
2023-12-05T04:24:48.903Z,8.30
2023-12-05T04:27:36.149Z,7.43
2023-12-05T04:30:23.532Z,8.70
2023-12-05T04:33:10.951Z,8.18
2023-12-05T04:35:58.183Z,7.78
2023-12-05T04:38:45.456Z,8.10
2023-12-05T04:41:35.199Z,7.97
2023-12-05T04:44:22.616Z,8.13
2023-12-05T04:47:10.567Z,8.10
2023-12-05T04:49:57.737Z,8.57
2023-12-05T04:52:45.072Z,7.82
2023-12-05T04:55:32.286Z,7.72
2023-12-05T04:58:19.535Z,8.18
2023-12-05T05:01:07.235Z,7.93
2023-12-05T05:03:54.656Z,8.60
2023-12-05T05:06:42.107Z,8.05
2023-12-05T05:09:29.481Z,8.82
2023-12-05T05:12:17.421Z,9.50
2023-12-05T05:15:05.092Z,8.80
2023-12-05T05:17:52.426Z,8.95
2023-12-05T05:20:39.589Z,8.98
2023-12-05T05:23:27.094Z,9.15
2023-12-05T05:26:15.538Z,9.20
2023-12-05T05:29:02.917Z,9.68
2023-12-05T05:31:50.142Z,10.32
2023-12-05T05:34:37.502Z,11.88
2023-12-05T05:37:24.769Z,12.00
2023-12-05T05:40:12.492Z,11.80
2023-12-05T05:42:59.732Z,12.13
2023-12-05T05:45:47.047Z,12.20
2023-12-05T05:48:34.474Z,12.02
2023-12-05T05:51:22.179Z,13.65
2023-12-05T05:54:09.436Z,14.07
2023-12-05T05:56:56.686Z,13.18
2023-12-05T05:59:44.403Z,14.32
2023-12-05T06:02:31.599Z,15.98
2023-12-05T06:05:18.886Z,16.88
2023-12-05T06:08:06.183Z,17.00
2023-12-05T06:10:53.465Z,17.52
2023-12-05T06:13:40.725Z,17.33
2023-12-05T06:16:27.910Z,17.65
2023-12-05T06:19:15.934Z,16.77
2023-12-05T06:22:03.142Z,16.90
2023-12-05T06:24:50.435Z,16.73
2023-12-05T06:27:37.783Z,16.40
2023-12-05T06:30:27.384Z,16.88
2023-12-05T06:33:15.266Z,16.63
2023-12-05T06:36:02.783Z,17.45
2023-12-05T06:38:49.954Z,17.60
2023-12-05T06:41:37.651Z,17.85
2023-12-05T06:44:24.901Z,18.13
2023-12-05T06:47:12.099Z,18.25
2023-12-05T06:50:02.994Z,17.83
2023-12-05T06:52:51.474Z,19.48
2023-12-05T06:55:40.131Z,18.52
2023-12-05T06:58:28.428Z,18.20
2023-12-05T07:01:15.756Z,20.10
2023-12-05T07:04:03.127Z,18.25
2023-12-05T07:06:50.493Z,17.95
2023-12-05T07:09:37.937Z,18.40
2023-12-05T07:12:25.249Z,17.77
2023-12-05T07:15:12.486Z,17.25
2023-12-05T07:17:59.736Z,16.52
2023-12-05T07:20:47.026Z,16.73
2023-12-05T07:23:34.166Z,16.75
2023-12-05T07:26:21.444Z,16.77
2023-12-05T07:29:09.914Z,16.00
2023-12-05T07:31:57.128Z,15.65
2023-12-05T07:34:45.292Z,15.15
2023-12-05T07:37:32.876Z,15.10
2023-12-05T07:40:20.549Z,15.40
2023-12-05T07:43:08.309Z,16.10
2023-12-05T07:45:55.577Z,16.20
2023-12-05T07:48:43.228Z,16.25
2023-12-05T07:51:30.648Z,15.73
2023-12-05T07:54:17.970Z,14.25
2023-12-05T07:57:05.411Z,15.40
2023-12-05T07:59:52.724Z,16.40
2023-12-05T08:02:39.909Z,15.00
2023-12-05T08:05:27.155Z,16.00
2023-12-05T08:08:14.391Z,16.73
2023-12-05T08:11:02.296Z,16.88
2023-12-05T08:13:50.406Z,16.52
2023-12-05T08:16:39.685Z,17.58
2023-12-05T08:19:26.869Z,17.48
2023-12-05T08:22:14.312Z,18.17
2023-12-05T08:25:01.540Z,17.58
2023-12-05T08:27:48.791Z,19.10
2023-12-05T08:30:36.905Z,19.38
2023-12-05T08:33:24.317Z,21.88
2023-12-05T08:36:12.047Z,22.92
2023-12-05T08:38:59.286Z,22.00
2023-12-05T08:41:46.690Z,22.45
2023-12-05T08:44:33.961Z,22.45
2023-12-05T08:47:21.426Z,22.58
2023-12-05T08:50:09.106Z,23.17
2023-12-05T08:52:56.362Z,24.48
2023-12-05T08:55:45.010Z,25.25
2023-12-05T08:58:32.262Z,24.13
2023-12-05T09:01:20.874Z,23.35
2023-12-05T09:04:09.409Z,23.38
2023-12-05T09:06:56.917Z,23.05
2023-12-05T09:09:44.221Z,22.95
2023-12-05T09:12:31.657Z,22.65
2023-12-05T09:15:18.959Z,22.35
2023-12-05T09:18:06.235Z,22.00
2023-12-05T09:20:53.504Z,20.45
2023-12-05T09:23:40.785Z,19.65
2023-12-05T09:26:27.979Z,18.48
2023-12-05T09:29:15.252Z,18.13
2023-12-05T09:32:02.432Z,18.65
2023-12-05T09:34:49.691Z,18.60
2023-12-05T09:37:36.931Z,18.73
2023-12-05T09:40:24.624Z,18.77
2023-12-05T09:43:11.933Z,20.13
2023-12-05T09:46:01.735Z,21.67
2023-12-05T09:48:50.765Z,22.48
2023-12-05T09:51:38.549Z,23.88
2023-12-05T09:54:27.079Z,23.67
2023-12-05T09:57:15.035Z,22.08
2023-12-05T10:00:02.292Z,22.42
2023-12-05T10:02:51.082Z,21.90
2023-12-05T10:05:43.171Z,22.23
2023-12-05T10:08:31.068Z,23.63
2023-12-05T10:11:21.594Z,22.88
2023-12-05T10:14:08.904Z,22.80
2023-12-05T10:16:56.490Z,21.83
2023-12-05T10:19:43.855Z,21.48
2023-12-05T10:22:33.026Z,21.50
2023-12-05T10:25:20.408Z,21.30
2023-12-05T10:28:08.199Z,20.90
2023-12-05T10:30:55.542Z,21.27
2023-12-05T10:33:42.890Z,19.65
2023-12-05T10:36:30.155Z,17.77
2023-12-05T10:39:17.352Z,18.95
2023-12-05T10:42:05.227Z,17.80
2023-12-05T10:44:52.409Z,16.90
2023-12-05T10:47:39.716Z,16.25
2023-12-05T10:50:26.943Z,16.70
2023-12-05T10:53:15.687Z,16.70
2023-12-05T10:56:16.418Z,16.58
2023-12-05T10:59:04.524Z,15.82
2023-12-05T11:01:51.978Z,15.60
2023-12-05T11:04:40.716Z,16.00
2023-12-05T11:07:27.940Z,15.20
2023-12-05T11:10:17.937Z,14.77
2023-12-05T11:13:05.566Z,14.98
2023-12-05T11:15:57.550Z,15.15
2023-12-05T11:18:46.738Z,14.15
2023-12-05T11:21:59.004Z,13.52
2023-12-05T11:24:57.964Z,14.07
2023-12-05T11:28:15.956Z,15.27
2023-12-05T11:31:34.292Z,15.20
2023-12-05T11:34:34.356Z,17.98
2023-12-05T11:37:44.702Z,21.83
2023-12-05T11:40:32.156Z,23.60
2023-12-05T11:43:19.465Z,26.30
2023-12-05T11:46:06.784Z,25.48
2023-12-05T11:48:56.222Z,24.90
2023-12-05T11:51:53.072Z,24.40
2023-12-05T11:54:43.569Z,25.88
2023-12-05T11:57:33.498Z,23.67
2023-12-05T12:00:22.040Z,25.15
2023-12-05T12:03:10.030Z,24.15
2023-12-05T12:06:06.990Z,24.73
2023-12-05T12:08:55.524Z,24.92
2023-12-05T12:11:44.075Z,22.27
2023-12-05T12:14:32.019Z,21.33
2023-12-05T12:17:19.291Z,22.10
2023-12-05T12:20:07.060Z,21.90
2023-12-05T12:22:54.375Z,23.08
2023-12-05T12:25:58.755Z,21.95
2023-12-05T12:28:50.323Z,20.73
2023-12-05T12:31:37.595Z,21.75
2023-12-05T12:34:28.915Z,20.88
2023-12-05T12:37:21.040Z,21.55
2023-12-05T12:40:10.350Z,21.05
2023-12-05T12:42:58.075Z,18.40
2023-12-05T12:45:45.329Z,20.92
2023-12-05T12:48:32.768Z,20.88
2023-12-05T12:51:20.235Z,21.20
2023-12-05T12:54:08.055Z,19.08
2023-12-05T12:56:55.924Z,19.15
2023-12-05T12:59:43.504Z,20.00
2023-12-05T13:02:32.666Z,19.95
2023-12-05T13:05:19.853Z,19.20
2023-12-05T13:08:10.311Z,20.23
2023-12-05T13:10:57.571Z,20.42
2023-12-05T13:13:45.334Z,19.65
2023-12-05T13:16:32.649Z,20.15
2023-12-05T13:19:28.894Z,20.90
2023-12-05T13:22:17.202Z,20.60
2023-12-05T13:25:05.182Z,20.58
2023-12-05T13:27:53.347Z,19.25
2023-12-05T13:30:41.166Z,20.73
2023-12-05T13:33:28.458Z,19.05
2023-12-05T13:36:16.919Z,20.30
2023-12-05T13:39:04.621Z,19.02
2023-12-05T13:41:52.494Z,20.80
2023-12-05T13:44:44.000Z,19.67
2023-12-05T13:47:31.284Z,19.55
2023-12-05T13:50:20.251Z,20.15
2023-12-05T13:53:07.439Z,22.85
2023-12-05T13:55:54.703Z,22.23
2023-12-05T13:58:44.282Z,19.58
2023-12-05T14:01:31.645Z,18.88
2023-12-05T14:04:21.917Z,18.77
2023-12-05T14:07:09.236Z,19.08
2023-12-05T14:09:56.555Z,19.27
2023-12-05T14:12:43.834Z,19.38
2023-12-05T14:15:31.129Z,19.15
2023-12-05T14:18:18.460Z,20.17
2023-12-05T14:21:05.923Z,19.17
2023-12-05T14:23:53.128Z,18.52
2023-12-05T14:26:40.383Z,16.77
2023-12-05T14:29:27.565Z,16.73
2023-12-05T14:32:15.779Z,16.15
2023-12-05T14:35:05.558Z,15.60
2023-12-05T14:37:52.928Z,16.45
2023-12-05T14:40:40.119Z,16.08
2023-12-05T14:43:27.727Z,15.65
2023-12-05T14:46:15.065Z,16.20
2023-12-05T14:49:02.401Z,16.05
2023-12-05T14:51:49.627Z,16.02
2023-12-05T14:54:36.911Z,16.25
2023-12-05T14:57:26.595Z,16.25
2023-12-05T15:00:14.566Z,16.67
2023-12-05T15:03:02.151Z,17.20
2023-12-05T15:05:49.454Z,17.05
2023-12-05T15:08:36.630Z,16.58
2023-12-05T15:11:24.221Z,17.05
2023-12-05T15:14:11.907Z,16.60
2023-12-05T15:16:59.251Z,18.58
2023-12-05T15:20:17.716Z,17.67
2023-12-05T15:22:53.937Z,17.80
2023-12-05T15:25:41.415Z,17.17
2023-12-05T15:28:30.395Z,18.60
2023-12-05T15:31:19.261Z,19.70
2023-12-05T15:34:06.662Z,20.00
2023-12-05T15:36:54.032Z,19.77
2023-12-05T15:39:41.322Z,20.13
2023-12-05T15:42:28.999Z,22.13
2023-12-05T15:45:18.154Z,22.05
2023-12-05T15:48:07.076Z,22.05
2023-12-05T15:50:54.577Z,24.05
2023-12-05T15:53:42.665Z,22.33
2023-12-05T15:56:30.519Z,23.55
2023-12-05T15:59:20.726Z,23.50
2023-12-05T16:02:08.061Z,24.48
2023-12-05T16:04:55.248Z,24.73
2023-12-05T16:07:42.565Z,26.02
2023-12-05T16:10:29.730Z,23.98
2023-12-05T16:13:17.117Z,27.05
2023-12-05T16:16:05.229Z,25.65
2023-12-05T16:18:52.597Z,24.45
2023-12-05T16:21:39.876Z,23.95
2023-12-05T16:24:27.218Z,31.48
2023-12-05T16:27:15.080Z,28.23
2023-12-05T16:30:03.234Z,25.58
2023-12-05T16:32:50.897Z,24.73
2023-12-05T16:35:38.401Z,25.77
2023-12-05T16:38:25.796Z,23.88
2023-12-05T16:41:14.237Z,22.23
2023-12-05T16:44:01.440Z,23.45
2023-12-05T16:46:48.628Z,22.08
2023-12-05T16:49:35.902Z,23.08
2023-12-05T16:52:23.337Z,22.95
2023-12-05T16:55:10.589Z,23.05
2023-12-05T16:57:59.067Z,22.95
2023-12-05T17:00:47.514Z,21.58
2023-12-05T17:03:34.897Z,21.20
2023-12-05T17:06:23.087Z,21.98
2023-12-05T17:09:10.889Z,24.00
2023-12-05T17:11:58.200Z,22.80
2023-12-05T17:14:45.538Z,23.17
2023-12-05T17:17:34.740Z,22.52
2023-12-05T17:20:22.051Z,23.08
2023-12-05T17:23:09.340Z,22.67
2023-12-05T17:25:57.017Z,22.88
2023-12-05T17:28:44.385Z,23.33
2023-12-05T17:31:32.246Z,22.38
2023-12-05T17:34:19.621Z,23.95
2023-12-05T17:37:07.025Z,24.15
2023-12-05T17:39:54.400Z,24.27
2023-12-05T17:42:41.712Z,24.20
2023-12-05T17:45:29.332Z,23.30
2023-12-05T17:48:17.107Z,24.40
2023-12-05T17:51:04.809Z,23.55
2023-12-05T17:53:52.035Z,23.15
2023-12-05T17:56:39.494Z,24.50
2023-12-05T17:59:26.748Z,23.52
2023-12-05T18:02:13.991Z,23.95
2023-12-05T18:05:01.971Z,25.70
2023-12-05T18:07:56.488Z,24.13
2023-12-05T18:10:46.946Z,24.45
2023-12-05T18:13:34.303Z,23.98
2023-12-05T18:16:21.695Z,23.70
2023-12-05T18:19:09.377Z,24.40
2023-12-05T18:21:56.596Z,24.05
2023-12-05T18:24:47.587Z,23.67
2023-12-05T18:27:35.097Z,24.50
2023-12-05T18:30:22.337Z,24.42
2023-12-05T18:33:10.049Z,23.30
2023-12-05T18:35:57.410Z,23.75
2023-12-05T18:38:44.776Z,22.90
2023-12-05T18:41:32.018Z,24.60
2023-12-05T18:44:19.410Z,24.17
2023-12-05T18:47:06.776Z,24.00
2023-12-05T18:49:54.501Z,22.40
2023-12-05T18:52:41.858Z,21.88
2023-12-05T18:55:29.124Z,21.55
2023-12-05T18:58:16.466Z,21.77
2023-12-05T19:01:04.141Z,21.92
2023-12-05T19:03:51.654Z,21.02
2023-12-05T19:06:39.089Z,20.50
2023-12-05T19:09:26.964Z,21.00
2023-12-05T19:12:15.408Z,20.83
2023-12-05T19:15:03.338Z,21.92
2023-12-05T19:17:52.153Z,20.42
2023-12-05T19:20:40.122Z,18.85
2023-12-05T19:23:27.392Z,19.10
2023-12-05T19:26:26.909Z,18.55
2023-12-05T19:29:14.358Z,19.45
2023-12-05T19:32:02.525Z,18.50
2023-12-05T19:34:51.294Z,17.92
2023-12-05T19:37:39.080Z,18.15
2023-12-05T19:40:26.823Z,18.45
2023-12-05T19:43:14.108Z,18.40
2023-12-05T19:46:01.451Z,19.42
2023-12-05T19:48:50.270Z,19.17
2023-12-05T19:51:37.744Z,18.65
2023-12-05T19:54:25.070Z,18.40
2023-12-05T19:57:13.257Z,18.65
2023-12-05T20:00:01.120Z,17.90
2023-12-05T20:02:48.407Z,17.67
2023-12-05T20:05:35.602Z,17.90
2023-12-05T20:08:23.456Z,18.30
2023-12-05T20:11:16.109Z,17.75
2023-12-05T20:14:03.432Z,17.30
2023-12-05T20:16:50.716Z,17.75
2023-12-05T20:19:38.308Z,18.33
2023-12-05T20:22:25.993Z,17.17
2023-12-05T20:25:13.396Z,17.67
2023-12-05T20:28:00.834Z,17.27
2023-12-05T20:30:50.229Z,17.40
2023-12-05T20:33:37.644Z,16.98
2023-12-05T20:36:25.292Z,16.30
2023-12-05T20:39:13.188Z,15.52
2023-12-05T20:42:00.405Z,16.08
2023-12-05T20:44:47.613Z,18.42
2023-12-05T20:47:35.907Z,15.45
2023-12-05T20:50:24.779Z,17.02
2023-12-05T20:53:12.440Z,17.55
2023-12-05T20:56:00.045Z,18.20
2023-12-05T20:58:47.283Z,14.75
2023-12-05T21:01:34.771Z,16.13
2023-12-05T21:04:22.254Z,15.43
2023-12-05T21:07:09.713Z,15.35
2023-12-05T21:09:56.993Z,15.77
2023-12-05T21:12:44.293Z,19.98
2023-12-05T21:15:31.628Z,14.90
2023-12-05T21:18:20.323Z,16.83
2023-12-05T21:21:07.707Z,17.95
2023-12-05T21:23:55.003Z,24.42
2023-12-05T21:26:42.241Z,19.75
2023-12-05T21:29:29.546Z,15.00
2023-12-05T21:32:17.022Z,15.23
2023-12-05T21:35:04.438Z,14.95
2023-12-05T21:37:51.701Z,15.40
2023-12-05T21:40:39.072Z,15.18
2023-12-05T21:43:27.960Z,15.43
2023-12-05T21:46:28.834Z,15.43
2023-12-05T21:49:16.603Z,14.88
2023-12-05T21:52:05.074Z,15.65
2023-12-05T21:57:39.952Z,16.08
2023-12-05T22:00:27.447Z,15.50
2023-12-05T22:03:14.737Z,16.23
2023-12-05T22:06:02.241Z,15.07
2023-12-05T22:08:49.460Z,16.27
2023-12-05T22:11:36.798Z,15.77
2023-12-05T22:14:24.320Z,16.38
2023-12-05T22:17:11.691Z,15.93
2023-12-05T22:19:59.014Z,15.23
2023-12-05T22:22:46.337Z,17.00
2023-12-05T22:25:34.360Z,17.10
2023-12-05T22:28:21.716Z,17.08
2023-12-05T22:31:12.103Z,19.42
2023-12-05T22:33:59.789Z,17.70
2023-12-05T22:36:47.054Z,17.98
2023-12-05T22:39:34.857Z,18.05
2023-12-05T22:42:22.106Z,17.90
2023-12-05T22:45:09.589Z,18.48
2023-12-05T22:47:56.931Z,18.95
2023-12-05T22:50:44.172Z,18.75
2023-12-05T22:53:31.647Z,17.58
2023-12-05T22:56:19.459Z,19.23
2023-12-05T22:59:06.752Z,18.27
2023-12-05T23:01:54.032Z,18.08
2023-12-05T23:04:41.316Z,20.05
2023-12-05T23:07:28.644Z,19.02
2023-12-05T23:10:16.349Z,18.27
2023-12-05T23:13:03.924Z,18.23
2023-12-05T23:15:53.823Z,18.17
2023-12-05T23:18:41.210Z,18.80
2023-12-05T23:21:28.485Z,17.75
2023-12-05T23:24:15.666Z,18.25
2023-12-05T23:27:03.023Z,17.55
2023-12-05T23:29:50.673Z,18.20
2023-12-05T23:32:38.043Z,18.58
2023-12-05T23:35:25.315Z,18.17
2023-12-05T23:38:13.030Z,18.38
2023-12-05T23:41:00.288Z,18.33
2023-12-05T23:43:47.700Z,17.80
2023-12-05T23:46:35.015Z,17.50
2023-12-05T23:49:22.325Z,17.85
2023-12-05T23:52:09.766Z,18.13
2023-12-05T23:54:57.213Z,17.77
2023-12-05T23:57:44.610Z,17.98
